createdAt,value
2018-08-14T00:00:36.499Z,4.10
2018-08-14T00:03:14.070Z,3.70
2018-08-14T00:05:46.411Z,3.83
2018-08-14T00:08:15.791Z,3.67
2018-08-14T00:10:45.051Z,4.10
2018-08-14T00:13:15.232Z,3.50
2018-08-14T00:15:46.043Z,3.43
2018-08-14T00:18:21.214Z,3.90
2018-08-14T00:20:50.311Z,3.97
2018-08-14T00:23:19.349Z,3.80
2018-08-14T00:25:48.371Z,3.60
2018-08-14T00:28:17.560Z,3.33
2018-08-14T00:30:46.567Z,3.67
2018-08-14T00:33:15.645Z,3.90
2018-08-14T00:35:44.770Z,3.73
2018-08-14T00:38:13.848Z,3.90
2018-08-14T00:40:42.871Z,4.07
2018-08-14T00:43:11.836Z,3.50
2018-08-14T00:45:40.827Z,3.40
2018-08-14T00:48:10.057Z,4.33
2018-08-14T00:50:39.188Z,3.90
2018-08-14T00:53:08.503Z,3.63
2018-08-14T00:55:37.428Z,3.73
2018-08-14T00:58:06.490Z,4.30
2018-08-14T01:00:36.223Z,3.90
2018-08-14T01:03:05.463Z,3.83
2018-08-14T01:05:34.692Z,3.70
2018-08-14T01:08:03.944Z,3.63
2018-08-14T01:10:33.031Z,3.53
2018-08-14T01:13:02.134Z,3.77
2018-08-14T01:15:31.420Z,3.60
2018-08-14T01:18:00.576Z,3.37
2018-08-14T01:20:31.115Z,3.70
2018-08-14T01:23:00.558Z,4.00
2018-08-14T01:25:29.930Z,3.70
2018-08-14T01:27:59.067Z,3.80
2018-08-14T01:30:30.852Z,3.73
2018-08-14T01:32:59.925Z,3.83
2018-08-14T01:35:29.277Z,3.90
2018-08-14T01:37:58.359Z,3.73
2018-08-14T01:40:27.401Z,4.00
2018-08-14T01:42:56.432Z,4.07
2018-08-14T01:45:25.501Z,3.80
2018-08-14T01:47:54.490Z,4.17
2018-08-14T01:50:25.807Z,3.90
2018-08-14T01:52:54.940Z,4.23
2018-08-14T01:55:24.971Z,3.93
2018-08-14T01:57:55.125Z,3.90
2018-08-14T02:00:25.556Z,4.40
2018-08-14T02:02:54.802Z,4.33
2018-08-14T02:05:23.936Z,3.57
2018-08-14T02:07:52.959Z,4.07
2018-08-14T02:10:23.195Z,3.57
2018-08-14T02:12:52.363Z,3.63
2018-08-14T02:15:21.318Z,4.13
2018-08-14T02:17:50.370Z,4.10
2018-08-14T02:20:22.588Z,4.13
2018-08-14T02:22:53.428Z,4.03
2018-08-14T02:25:22.441Z,4.03
2018-08-14T02:27:51.867Z,3.80
2018-08-14T02:30:20.895Z,4.17
2018-08-14T02:32:49.961Z,4.17
2018-08-14T02:35:19.072Z,4.27
2018-08-14T02:37:48.180Z,3.60
2018-08-14T02:40:20.490Z,3.93
2018-08-14T02:42:50.225Z,4.13
2018-08-14T02:45:19.242Z,4.40
2018-08-14T02:47:48.463Z,4.20
2018-08-14T02:50:17.741Z,3.83
2018-08-14T02:52:46.840Z,4.20
2018-08-14T02:55:19.009Z,4.50
2018-08-14T02:57:48.003Z,4.40
2018-08-14T03:00:21.138Z,4.30
2018-08-14T03:02:50.179Z,4.13
2018-08-14T03:05:19.179Z,4.27
2018-08-14T03:07:48.224Z,4.70
2018-08-14T03:10:17.300Z,4.63
2018-08-14T03:12:46.468Z,16.17
2018-08-14T03:15:17.020Z,40.00
2018-08-14T03:17:49.074Z,11.60
2018-08-14T03:20:18.157Z,14.70
2018-08-14T03:22:47.264Z,11.20
2018-08-14T03:25:16.460Z,8.70
2018-08-14T03:27:46.123Z,7.40
2018-08-14T03:30:15.236Z,6.77
2018-08-14T03:32:44.424Z,6.53
2018-08-14T03:35:15.026Z,5.90
2018-08-14T03:37:44.150Z,5.93
2018-08-14T03:40:16.447Z,5.70
2018-08-14T03:42:46.443Z,5.33
2018-08-14T03:45:15.532Z,5.30
2018-08-14T03:47:45.292Z,5.40
2018-08-14T03:50:14.882Z,5.20
2018-08-14T03:52:44.383Z,5.23
2018-08-14T03:55:16.113Z,4.90
2018-08-14T03:57:45.263Z,5.23
2018-08-14T04:00:16.873Z,10.93
2018-08-14T04:02:46.100Z,8.23
2018-08-14T04:05:15.668Z,7.53
2018-08-14T04:07:45.115Z,7.07
2018-08-14T04:10:14.565Z,6.33
2018-08-14T04:12:43.620Z,6.17
2018-08-14T04:15:14.073Z,5.53
2018-08-14T04:17:43.119Z,5.50
2018-08-14T04:20:13.321Z,5.13
2018-08-14T04:22:42.708Z,5.80
2018-08-14T04:25:12.571Z,4.57
2018-08-14T04:27:41.590Z,5.33
2018-08-14T04:30:14.112Z,5.20
2018-08-14T04:32:44.532Z,5.20
2018-08-14T04:35:13.795Z,5.10
2018-08-14T04:37:43.143Z,5.30
2018-08-14T04:40:13.068Z,4.90
2018-08-14T04:42:42.912Z,5.00
2018-08-14T04:45:11.991Z,5.97
2018-08-14T04:47:41.310Z,4.90
2018-08-14T04:50:12.383Z,5.63
2018-08-14T04:52:41.991Z,5.63
2018-08-14T04:55:11.770Z,5.53
2018-08-14T04:57:41.498Z,4.97
2018-08-14T05:00:13.240Z,5.40
2018-08-14T05:02:42.453Z,5.10
2018-08-14T05:05:12.724Z,5.63
2018-08-14T05:07:41.795Z,5.43
2018-08-14T05:10:12.994Z,6.63
2018-08-14T05:12:42.149Z,5.90
2018-08-14T05:15:11.380Z,5.87
2018-08-14T05:17:40.894Z,6.00
2018-08-14T05:20:11.966Z,5.63
2018-08-14T05:22:41.317Z,5.53
2018-08-14T05:25:10.991Z,6.33
2018-08-14T05:27:40.349Z,5.33
2018-08-14T05:30:11.897Z,8.00
2018-08-14T05:32:40.990Z,7.83
2018-08-14T05:35:10.244Z,8.07
2018-08-14T05:37:39.319Z,6.97
2018-08-14T05:40:09.172Z,7.20
2018-08-14T05:42:38.594Z,7.23
2018-08-14T05:45:08.940Z,7.13
2018-08-14T05:47:38.055Z,8.17
2018-08-14T05:50:07.744Z,7.17
2018-08-14T05:52:36.746Z,7.50
2018-08-14T05:55:06.045Z,7.80
2018-08-14T05:57:35.095Z,7.73
2018-08-14T06:00:04.427Z,8.13
2018-08-14T06:02:33.390Z,7.73
2018-08-14T06:05:02.771Z,7.63
2018-08-14T06:07:35.691Z,8.00
2018-08-14T06:10:05.837Z,7.83
2018-08-14T06:12:35.221Z,7.83
2018-08-14T06:15:04.362Z,8.20
2018-08-14T06:17:33.487Z,6.33
2018-08-14T06:20:02.483Z,6.40
2018-08-14T06:22:31.454Z,6.23
2018-08-14T06:25:00.659Z,6.60
2018-08-14T06:27:29.872Z,7.20
2018-08-14T06:29:58.937Z,7.20
2018-08-14T06:32:28.016Z,6.67
2018-08-14T06:34:57.206Z,7.50
2018-08-14T06:37:26.180Z,7.53
2018-08-14T06:39:55.284Z,7.80
2018-08-14T06:42:25.039Z,7.93
2018-08-14T06:44:54.189Z,6.50
2018-08-14T06:47:23.210Z,7.33
2018-08-14T06:49:52.201Z,7.40
2018-08-14T06:52:21.308Z,6.77
2018-08-14T06:54:51.239Z,7.30
2018-08-14T06:57:20.259Z,8.10
2018-08-14T06:59:50.151Z,6.67
2018-08-14T07:02:19.459Z,7.63
2018-08-14T07:04:48.399Z,7.97
2018-08-14T07:07:17.427Z,7.13
2018-08-14T07:09:46.600Z,7.53
2018-08-14T07:12:15.787Z,7.77
2018-08-14T07:14:44.860Z,7.97
2018-08-14T07:17:20.599Z,7.83
2018-08-14T07:19:49.876Z,7.43
2018-08-14T07:22:20.645Z,8.50
2018-08-14T07:24:50.040Z,7.40
2018-08-14T07:27:18.975Z,7.67
2018-08-14T07:29:48.299Z,7.27
2018-08-14T07:32:17.309Z,8.50
2018-08-14T07:34:48.952Z,12.00
2018-08-14T07:37:18.316Z,9.47
2018-08-14T07:39:47.716Z,9.13
2018-08-14T07:42:17.081Z,8.70
2018-08-14T07:44:46.279Z,9.07
2018-08-14T07:47:15.592Z,12.33
2018-08-14T07:49:45.027Z,9.47
2018-08-14T07:52:14.159Z,8.90
2018-08-14T07:54:43.143Z,7.23
2018-08-14T07:57:12.244Z,9.00
2018-08-14T07:59:41.317Z,7.40
2018-08-14T08:02:10.595Z,6.97
2018-08-14T08:04:39.723Z,7.37
2018-08-14T08:07:08.801Z,7.87
2018-08-14T08:09:37.896Z,6.70
2018-08-14T08:12:06.974Z,5.60
2018-08-14T08:14:36.131Z,6.03
2018-08-14T08:17:05.188Z,5.77
2018-08-14T08:19:35.277Z,5.90
2018-08-14T08:22:04.643Z,6.30
2018-08-14T08:24:33.860Z,6.20
2018-08-14T08:27:03.016Z,5.50
2018-08-14T08:29:32.447Z,6.10
2018-08-14T08:32:01.775Z,5.83
2018-08-14T08:34:31.027Z,6.53
2018-08-14T08:37:00.107Z,6.00
2018-08-14T08:39:29.132Z,5.87
2018-08-14T08:41:58.339Z,6.40
2018-08-14T08:44:27.505Z,6.80
2018-08-14T08:46:56.698Z,6.27
2018-08-14T08:49:25.747Z,6.20
2018-08-14T08:51:54.771Z,5.77
2018-08-14T08:54:23.803Z,6.07
2018-08-14T08:56:52.783Z,6.13
2018-08-14T08:59:23.456Z,6.40
2018-08-14T09:01:52.592Z,5.37
2018-08-14T09:04:28.442Z,5.87
2018-08-14T09:06:57.684Z,5.83
2018-08-14T09:09:26.749Z,5.80
2018-08-14T09:11:55.999Z,6.40
2018-08-14T09:14:25.028Z,6.07
2018-08-14T09:16:54.343Z,6.30
2018-08-14T09:19:23.430Z,6.17
2018-08-14T09:21:52.471Z,6.33
2018-08-14T09:24:21.491Z,6.57
2018-08-14T09:26:50.647Z,6.30
2018-08-14T09:29:19.591Z,4.97
2018-08-14T09:31:48.663Z,6.50
2018-08-14T09:34:17.633Z,6.17
2018-08-14T09:36:47.144Z,5.60
2018-08-14T09:39:20.265Z,6.90
2018-08-14T09:41:50.591Z,5.80
2018-08-14T09:44:19.608Z,5.43
2018-08-14T09:46:48.816Z,5.97
2018-08-14T09:49:17.950Z,5.90
2018-08-14T09:51:47.023Z,5.97
2018-08-14T09:54:16.113Z,5.20
2018-08-14T09:56:51.546Z,6.03
2018-08-14T09:59:20.668Z,5.47
2018-08-14T10:01:54.910Z,5.80
2018-08-14T10:04:33.352Z,5.90
2018-08-14T10:07:08.190Z,5.07
2018-08-14T10:09:37.423Z,5.67
2018-08-14T10:12:06.693Z,5.17
2018-08-14T10:14:42.765Z,5.93
2018-08-14T10:17:14.518Z,5.90
2018-08-14T10:19:43.642Z,6.73
2018-08-14T10:22:12.718Z,5.83
2018-08-14T10:24:41.771Z,6.00
2018-08-14T10:27:10.936Z,6.17
2018-08-14T10:29:40.279Z,5.83
2018-08-14T10:32:09.449Z,5.80
2018-08-14T10:34:38.439Z,4.87
2018-08-14T10:37:07.601Z,6.20
2018-08-14T10:39:36.726Z,5.87
2018-08-14T10:42:06.327Z,5.77
2018-08-14T10:44:35.559Z,6.73
2018-08-14T10:47:04.583Z,5.97
2018-08-14T10:49:33.602Z,6.47
2018-08-14T10:52:02.633Z,5.73
2018-08-14T10:54:31.790Z,5.83
2018-08-14T10:57:00.947Z,5.37
2018-08-14T10:59:30.063Z,5.90
2018-08-14T11:01:59.088Z,6.47
2018-08-14T11:04:28.183Z,6.23
2018-08-14T11:06:57.566Z,6.27
2018-08-14T11:09:26.637Z,6.03
2018-08-14T11:12:00.781Z,5.10
2018-08-14T11:14:29.829Z,6.00
2018-08-14T11:16:58.866Z,4.97
2018-08-14T11:19:27.867Z,5.30
2018-08-14T11:21:56.998Z,6.43
2018-08-14T11:24:26.052Z,6.37
2018-08-14T11:26:55.016Z,4.60
2018-08-14T11:29:24.077Z,4.40
2018-08-14T11:31:53.212Z,4.57
2018-08-14T11:34:22.623Z,5.37
2018-08-14T11:36:51.776Z,4.87
2018-08-14T11:39:21.136Z,5.07
2018-08-14T11:41:50.344Z,7.20
2018-08-14T11:44:20.172Z,6.20
2018-08-14T11:46:49.401Z,4.97
2018-08-14T11:49:18.543Z,6.17
2018-08-14T11:51:47.581Z,5.80
2018-08-14T11:54:16.563Z,6.07
2018-08-14T11:56:45.538Z,5.03
2018-08-14T11:59:14.572Z,6.20
2018-08-14T12:01:43.619Z,8.30
2018-08-14T12:04:12.781Z,6.67
2018-08-14T12:06:41.716Z,7.70
2018-08-14T12:09:11.883Z,7.67
2018-08-14T12:11:41.343Z,6.80
2018-08-14T12:14:10.895Z,7.83
2018-08-14T12:16:40.040Z,8.17
2018-08-14T12:19:09.153Z,6.90
2018-08-14T12:21:38.217Z,6.20
2018-08-14T12:24:07.331Z,6.80
2018-08-14T12:26:37.584Z,7.17
2018-08-14T12:29:07.003Z,7.10
2018-08-14T12:31:36.135Z,8.13
2018-08-14T12:34:05.284Z,7.83
2018-08-14T12:36:34.470Z,9.17
2018-08-14T12:39:03.704Z,9.43
2018-08-14T12:41:32.649Z,9.30
2018-08-14T12:44:01.836Z,10.77
2018-08-14T12:46:30.999Z,11.17
2018-08-14T12:49:00.333Z,8.63
2018-08-14T12:51:29.357Z,8.57
2018-08-14T12:53:58.323Z,11.30
2018-08-14T12:56:27.297Z,8.33
2018-08-14T12:58:56.316Z,7.37
2018-08-14T13:01:25.407Z,6.77
2018-08-14T13:03:54.435Z,8.07
2018-08-14T13:06:23.389Z,6.47
2018-08-14T13:08:52.632Z,8.20
2018-08-14T13:11:21.596Z,6.00
2018-08-14T13:13:50.723Z,6.03
2018-08-14T13:16:19.731Z,5.93
2018-08-14T13:18:48.915Z,7.33
2018-08-14T13:21:18.530Z,7.73
2018-08-14T13:23:47.688Z,6.50
2018-08-14T13:26:16.679Z,6.47
2018-08-14T13:28:45.619Z,6.00
2018-08-14T13:31:14.676Z,7.03
2018-08-14T13:33:43.653Z,7.70
2018-08-14T13:36:12.689Z,7.20
2018-08-14T13:38:41.778Z,5.67
2018-08-14T13:41:10.800Z,6.57
2018-08-14T13:43:39.812Z,5.77
2018-08-14T13:46:08.907Z,6.10
2018-08-14T13:48:37.919Z,6.63
2018-08-14T13:51:10.025Z,6.20
2018-08-14T13:53:39.174Z,5.53
2018-08-14T13:56:08.268Z,6.83
2018-08-14T13:58:37.367Z,7.60
2018-08-14T14:01:06.411Z,6.27
2018-08-14T14:03:35.383Z,7.17
2018-08-14T14:06:04.598Z,6.00
2018-08-14T14:08:33.608Z,6.73
2018-08-14T14:11:02.607Z,7.10
2018-08-14T14:13:31.619Z,5.40
2018-08-14T14:16:00.629Z,5.63
2018-08-14T14:18:29.829Z,5.97
2018-08-14T14:20:58.833Z,7.03
2018-08-14T14:23:27.898Z,53.90
2018-08-14T14:25:56.976Z,8.47
2018-08-14T14:28:26.081Z,7.43
2018-08-14T14:30:55.200Z,4.60
2018-08-14T14:33:24.193Z,5.20
2018-08-14T14:35:53.235Z,5.23
2018-08-14T14:38:22.276Z,5.00
2018-08-14T14:40:51.308Z,5.23
2018-08-14T14:43:20.549Z,6.83
2018-08-14T14:45:49.795Z,5.50
2018-08-14T14:48:18.999Z,5.03
2018-08-14T14:50:48.126Z,5.27
2018-08-14T14:53:17.184Z,4.83
2018-08-14T14:55:46.584Z,4.63
2018-08-14T14:58:15.655Z,5.20
2018-08-14T15:00:44.751Z,5.47
2018-08-14T15:03:13.955Z,5.10
2018-08-14T15:05:43.008Z,4.43
2018-08-14T15:08:12.124Z,5.33
2018-08-14T15:10:41.222Z,5.07
2018-08-14T15:13:10.155Z,5.00
2018-08-14T15:15:39.160Z,5.63
2018-08-14T15:18:08.260Z,4.33
2018-08-14T15:20:37.220Z,4.63
2018-08-14T15:23:06.268Z,4.50
2018-08-14T15:25:35.330Z,4.30
2018-08-14T15:29:14.143Z,4.63
2018-08-14T15:31:46.484Z,5.63
2018-08-14T15:34:16.811Z,5.10
2018-08-14T15:36:47.618Z,5.20
2018-08-14T15:39:17.962Z,5.33
2018-08-14T15:41:47.565Z,4.87
2018-08-14T15:44:16.699Z,7.00
2018-08-14T15:46:45.791Z,4.57
2018-08-14T15:49:14.985Z,5.23
2018-08-14T15:51:44.303Z,5.47
2018-08-14T15:54:14.059Z,5.63
2018-08-14T15:56:43.502Z,4.87
2018-08-14T15:59:12.980Z,6.07
2018-08-14T16:01:42.163Z,5.47
2018-08-14T16:04:12.480Z,4.50
2018-08-14T16:06:41.608Z,5.57
2018-08-14T16:09:14.841Z,6.30
2018-08-14T16:11:44.347Z,5.37
2018-08-14T16:14:13.591Z,5.70
2018-08-14T16:16:42.760Z,5.20
2018-08-14T16:19:12.890Z,4.80
2018-08-14T16:21:42.003Z,5.57
2018-08-14T16:24:12.230Z,5.87
2018-08-14T16:26:41.228Z,5.10
2018-08-14T16:29:10.463Z,5.60
2018-08-14T16:31:39.474Z,5.17
2018-08-14T16:34:09.695Z,7.00
2018-08-14T16:36:39.159Z,5.70
2018-08-14T16:39:10.267Z,6.73
2018-08-14T16:41:39.548Z,7.37
2018-08-14T16:44:08.680Z,5.40
2018-08-14T16:46:37.874Z,6.73
2018-08-14T16:49:06.987Z,5.43
2018-08-14T16:51:35.980Z,6.67
2018-08-14T16:54:05.255Z,7.03
2018-08-14T16:56:35.198Z,6.20
2018-08-14T16:59:04.339Z,5.53
2018-08-14T17:01:33.393Z,5.80
2018-08-14T17:04:02.640Z,5.73
2018-08-14T17:06:31.942Z,5.03
2018-08-14T17:09:00.927Z,5.77
2018-08-14T17:11:29.859Z,6.17
2018-08-14T17:13:58.815Z,6.80
2018-08-14T17:16:27.890Z,6.70
2018-08-14T17:18:56.851Z,6.33
2018-08-14T17:21:24.374Z,6.30
2018-08-14T17:23:53.348Z,6.87
2018-08-14T17:26:22.300Z,7.90
2018-08-14T17:28:51.260Z,6.63
2018-08-14T17:31:20.163Z,5.77
2018-08-14T17:33:49.234Z,5.70
2018-08-14T17:36:18.536Z,6.80
2018-08-14T17:38:47.589Z,5.30
2018-08-14T17:41:16.692Z,6.53
2018-08-14T17:43:45.651Z,6.30
2018-08-14T17:46:14.832Z,7.13
2018-08-14T17:48:43.978Z,6.40
2018-08-14T17:51:13.013Z,9.07
2018-08-14T17:53:42.073Z,5.73
2018-08-14T17:56:11.175Z,9.83
2018-08-14T17:58:40.336Z,7.07
2018-08-14T18:01:09.668Z,16.60
2018-08-14T18:03:38.636Z,12.37
2018-08-14T18:06:07.718Z,18.87
2018-08-14T18:08:36.800Z,9.53
2018-08-14T18:11:05.775Z,17.67
2018-08-14T18:13:34.799Z,25.30
2018-08-14T18:16:03.786Z,9.47
2018-08-14T18:18:33.053Z,22.10
2018-08-14T18:21:02.088Z,14.17
2018-08-14T18:23:31.064Z,7.73
2018-08-14T18:26:00.033Z,22.67
2018-08-14T18:28:29.400Z,9.67
2018-08-14T18:30:58.487Z,13.20
2018-08-14T18:33:27.684Z,17.17
2018-08-14T18:35:56.720Z,8.97
2018-08-14T18:38:25.700Z,23.30
2018-08-14T18:40:54.675Z,45.57
2018-08-14T18:43:23.790Z,9.87
2018-08-14T18:45:52.787Z,4.93
2018-08-14T18:48:21.874Z,6.60
2018-08-14T18:50:50.924Z,123.83
2018-08-14T18:53:19.926Z,14.83
2018-08-14T18:55:48.863Z,56.03
2018-08-14T18:58:18.033Z,38.63
2018-08-14T19:00:47.210Z,20.67
2018-08-14T19:03:16.847Z,13.53
2018-08-14T19:05:45.855Z,30.73
2018-08-14T19:08:14.959Z,78.40
2018-08-14T19:10:43.992Z,31.43
2018-08-14T19:13:19.419Z,20.03
2018-08-14T19:15:48.384Z,26.70
2018-08-14T19:18:17.616Z,10.33
2018-08-14T19:20:46.651Z,9.47
2018-08-14T19:23:15.768Z,6.17
2018-08-14T19:25:44.739Z,16.70
2018-08-14T19:28:13.772Z,11.50
2018-08-14T19:30:42.938Z,7.33
2018-08-14T19:33:11.928Z,6.73
2018-08-14T19:35:41.074Z,6.00
2018-08-14T19:38:10.185Z,22.20
2018-08-14T19:40:39.356Z,6.23
2018-08-14T19:43:08.655Z,82.10
2018-08-14T19:45:37.922Z,32.13
2018-08-14T19:48:07.105Z,41.50
2018-08-14T19:50:36.071Z,71.13
2018-08-14T19:53:05.126Z,156.87
2018-08-14T19:55:34.181Z,106.20
2018-08-14T19:58:03.349Z,32.97
2018-08-14T20:00:32.456Z,36.23
2018-08-14T20:03:01.428Z,87.97
2018-08-14T20:05:30.447Z,91.50
2018-08-14T20:07:59.706Z,55.00
2018-08-14T20:10:29.575Z,60.00
2018-08-14T20:12:58.725Z,26.83
2018-08-14T20:15:32.920Z,32.50
2018-08-14T20:18:02.042Z,76.30
2018-08-14T20:20:31.599Z,37.77
2018-08-14T20:23:00.748Z,44.67
2018-08-14T20:25:30.615Z,86.43
2018-08-14T20:27:59.757Z,79.00
2018-08-14T20:30:28.744Z,14.90
2018-08-14T20:32:57.781Z,46.67
2018-08-14T20:35:26.966Z,43.60
2018-08-14T20:37:56.052Z,7.00
2018-08-14T20:40:25.248Z,31.90
2018-08-14T20:42:54.308Z,6.83
2018-08-14T20:45:23.325Z,13.10
2018-08-14T20:47:52.355Z,7.00
2018-08-14T20:50:21.355Z,10.93
2018-08-14T20:52:50.295Z,4.00
2018-08-14T20:55:21.271Z,7.90
2018-08-14T20:57:50.224Z,3.90
2018-08-14T21:00:23.095Z,3.63
2018-08-14T21:02:52.974Z,21.10
2018-08-14T21:05:24.058Z,15.83
2018-08-14T21:07:54.220Z,12.00
2018-08-14T21:10:23.831Z,12.97
2018-08-14T21:12:52.903Z,6.53
2018-08-14T21:15:27.931Z,14.73
2018-08-14T21:17:57.021Z,3.50
2018-08-14T21:20:26.150Z,4.80
2018-08-14T21:22:55.412Z,11.50
2018-08-14T21:25:24.475Z,4.40
2018-08-14T21:27:53.587Z,5.83
2018-08-14T21:30:22.668Z,6.37
2018-08-14T21:32:51.627Z,10.43
2018-08-14T21:35:20.738Z,5.03
2018-08-14T21:37:49.939Z,4.77
2018-08-14T21:40:19.953Z,7.23
2018-08-14T21:42:50.160Z,8.10
2018-08-14T21:45:21.691Z,3.80
2018-08-14T21:47:50.960Z,3.60
2018-08-14T21:50:19.888Z,7.17
2018-08-14T21:52:48.891Z,3.83
2018-08-14T21:55:17.843Z,5.70
2018-08-14T21:57:46.790Z,6.20
2018-08-14T22:00:21.260Z,7.67
2018-08-14T22:02:50.783Z,7.63
2018-08-14T22:05:19.921Z,6.67
2018-08-14T22:07:48.847Z,4.90
2018-08-14T22:10:19.874Z,6.63
2018-08-14T22:12:49.293Z,6.63
2018-08-14T22:15:18.439Z,7.67
2018-08-14T22:17:48.033Z,6.67
2018-08-14T22:20:17.428Z,7.20
2018-08-14T22:22:46.599Z,5.40
2018-08-14T22:25:15.856Z,6.93
2018-08-14T22:27:45.011Z,6.33
2018-08-14T22:30:14.833Z,6.80
2018-08-14T22:32:44.904Z,6.30
2018-08-14T22:35:13.987Z,6.10
2018-08-14T22:37:42.956Z,6.83
2018-08-14T22:40:11.967Z,6.37
2018-08-14T22:42:41.168Z,5.20
2018-08-14T22:45:10.940Z,3.70
2018-08-14T22:47:40.735Z,3.70
2018-08-14T22:50:10.789Z,4.23
2018-08-14T22:52:40.062Z,3.80
2018-08-14T22:55:10.439Z,7.27
2018-08-14T22:57:40.456Z,6.03
2018-08-14T23:00:16.000Z,7.03
2018-08-14T23:02:45.370Z,4.43
2018-08-14T23:05:15.126Z,7.10
2018-08-14T23:07:44.371Z,5.40
2018-08-14T23:10:14.308Z,4.97
2018-08-14T23:12:43.942Z,5.33
2018-08-14T23:15:13.948Z,5.57
2018-08-14T23:17:43.015Z,4.83
2018-08-14T23:20:13.812Z,4.43
2018-08-14T23:22:42.825Z,5.47
2018-08-14T23:25:13.170Z,4.77
2018-08-14T23:27:42.377Z,4.67
2018-08-14T23:30:14.055Z,5.13
2018-08-14T23:32:43.214Z,5.60
2018-08-14T23:35:12.133Z,5.30
2018-08-14T23:37:41.177Z,4.33
2018-08-14T23:40:12.086Z,3.77
2018-08-14T23:42:41.134Z,5.53
2018-08-14T23:45:10.950Z,4.47
2018-08-14T23:47:40.010Z,4.77
2018-08-14T23:50:11.535Z,3.63
2018-08-14T23:52:40.980Z,4.50
2018-08-14T23:55:10.820Z,4.40
2018-08-14T23:57:39.817Z,4.20
